createdAt,value
2019-03-30T00:00:45.229Z,7.72
2019-03-30T00:03:14.284Z,7.68
2019-03-30T00:05:43.342Z,7.55
2019-03-30T00:08:12.392Z,7.52
2019-03-30T00:10:41.577Z,7.51
2019-03-30T00:13:10.627Z,7.37
2019-03-30T00:15:39.763Z,7.63
2019-03-30T00:18:08.845Z,7.60
2019-03-30T00:20:37.890Z,7.54
2019-03-30T00:23:07.032Z,7.48
2019-03-30T00:25:36.140Z,7.43
2019-03-30T00:28:05.275Z,7.44
2019-03-30T00:30:34.340Z,7.53
2019-03-30T00:33:03.514Z,7.46
2019-03-30T00:35:32.692Z,7.41
2019-03-30T00:38:01.711Z,7.29
2019-03-30T00:40:30.779Z,7.25
2019-03-30T00:42:59.822Z,7.14
2019-03-30T00:45:28.888Z,7.27
2019-03-30T00:47:58.061Z,7.21
2019-03-30T00:50:27.115Z,7.09
2019-03-30T00:52:56.147Z,7.09
2019-03-30T00:55:25.219Z,7.06
2019-03-30T00:57:54.278Z,7.04
2019-03-30T01:00:23.435Z,7.04
2019-03-30T01:02:52.512Z,6.94
2019-03-30T01:05:21.751Z,6.96
2019-03-30T01:07:50.808Z,6.86
2019-03-30T01:10:20.066Z,6.85
2019-03-30T01:12:49.243Z,6.86
2019-03-30T01:15:18.287Z,6.84
2019-03-30T01:17:47.689Z,6.93
2019-03-30T01:20:16.733Z,6.88
2019-03-30T01:22:45.904Z,6.89
2019-03-30T01:25:15.184Z,6.96
2019-03-30T01:27:44.344Z,6.81
2019-03-30T01:30:22.911Z,6.81
2019-03-30T01:32:44.870Z,6.80
2019-03-30T01:35:13.949Z,6.72
2019-03-30T01:37:43.154Z,6.70
2019-03-30T01:40:12.429Z,6.74
2019-03-30T01:42:41.570Z,6.67
2019-03-30T01:45:11.430Z,6.58
2019-03-30T01:47:40.516Z,6.57
2019-03-30T01:50:17.166Z,6.55
2019-03-30T01:52:41.207Z,6.64
2019-03-30T01:55:10.562Z,6.57
2019-03-30T01:57:39.629Z,6.56
2019-03-30T02:00:09.573Z,6.48
2019-03-30T02:02:38.908Z,6.30
2019-03-30T02:05:08.221Z,6.48
2019-03-30T02:07:37.383Z,6.47
2019-03-30T02:10:07.492Z,6.43
2019-03-30T02:12:36.706Z,6.48
2019-03-30T02:15:06.887Z,6.46
2019-03-30T02:17:35.944Z,6.34
2019-03-30T02:20:06.177Z,6.48
2019-03-30T02:22:35.345Z,6.57
2019-03-30T02:25:05.711Z,6.37
2019-03-30T02:27:34.869Z,6.60
2019-03-30T02:30:04.782Z,6.64
2019-03-30T02:32:33.821Z,6.48
2019-03-30T02:35:03.572Z,6.43
2019-03-30T02:37:33.019Z,6.35
2019-03-30T02:40:02.320Z,6.32
2019-03-30T02:42:31.371Z,6.70
2019-03-30T02:45:00.563Z,6.42
2019-03-30T02:47:29.632Z,6.55
2019-03-30T02:49:58.710Z,6.45
2019-03-30T02:52:27.796Z,6.43
2019-03-30T02:54:56.928Z,6.55
2019-03-30T02:57:26.002Z,6.49
2019-03-30T02:59:55.200Z,6.50
2019-03-30T03:02:24.253Z,6.61
2019-03-30T03:04:53.315Z,6.71
2019-03-30T03:07:22.598Z,6.62
2019-03-30T03:09:52.420Z,6.61
2019-03-30T03:12:21.521Z,6.62
2019-03-30T03:14:50.781Z,6.59
2019-03-30T03:17:20.215Z,6.50
2019-03-30T03:19:49.244Z,6.51
2019-03-30T03:22:18.459Z,6.50
2019-03-30T03:24:47.522Z,6.34
2019-03-30T03:27:16.618Z,6.48
2019-03-30T03:29:46.021Z,6.46
2019-03-30T03:32:15.072Z,6.35
2019-03-30T03:34:44.220Z,6.56
2019-03-30T03:37:13.520Z,6.70
2019-03-30T03:39:42.682Z,6.69
2019-03-30T03:42:11.837Z,6.69
2019-03-30T03:44:41.167Z,6.65
2019-03-30T03:47:10.337Z,6.99
2019-03-30T03:49:39.580Z,7.08
2019-03-30T03:52:08.873Z,6.95
2019-03-30T03:54:38.001Z,6.91
2019-03-30T03:57:10.909Z,6.96
2019-03-30T03:59:41.413Z,6.81
2019-03-30T04:02:13.289Z,6.54
2019-03-30T04:04:47.274Z,6.43
2019-03-30T04:07:19.692Z,6.49
2019-03-30T04:09:50.876Z,6.44
2019-03-30T04:12:22.197Z,6.47
2019-03-30T04:14:51.658Z,6.41
2019-03-30T04:17:20.926Z,6.55
2019-03-30T04:19:50.200Z,6.43
2019-03-30T04:22:19.283Z,6.25
2019-03-30T04:24:48.357Z,6.24
2019-03-30T04:27:17.409Z,6.28
2019-03-30T04:29:46.794Z,6.45
2019-03-30T04:32:15.905Z,6.43
2019-03-30T04:34:45.145Z,6.19
2019-03-30T04:37:14.235Z,6.02
2019-03-30T04:39:43.385Z,5.79
2019-03-30T04:42:12.602Z,5.91
2019-03-30T04:44:41.664Z,5.75
2019-03-30T04:47:10.731Z,5.67
2019-03-30T04:49:39.871Z,5.71
2019-03-30T04:52:08.971Z,5.72
2019-03-30T04:54:37.995Z,5.68
2019-03-30T04:57:07.031Z,5.62
2019-03-30T04:59:36.105Z,5.52
2019-03-30T05:02:05.408Z,5.52
2019-03-30T05:04:34.600Z,5.50
2019-03-30T05:07:03.678Z,5.48
2019-03-30T05:09:32.939Z,5.35
2019-03-30T05:12:02.153Z,5.35
2019-03-30T05:14:31.229Z,5.44
2019-03-30T05:17:00.255Z,5.28
2019-03-30T05:19:29.305Z,5.17
2019-03-30T05:22:11.389Z,5.37
2019-03-30T05:24:29.515Z,5.41
2019-03-30T05:26:58.670Z,5.47
2019-03-30T05:29:27.734Z,5.30
2019-03-30T05:31:56.763Z,5.36
2019-03-30T05:34:25.824Z,5.33
2019-03-30T05:36:54.862Z,5.47
2019-03-30T05:39:24.007Z,5.36
2019-03-30T05:41:53.088Z,5.20
2019-03-30T05:44:22.216Z,5.38
2019-03-30T05:46:51.253Z,5.52
2019-03-30T05:49:20.328Z,5.60
2019-03-30T05:51:49.484Z,5.63
2019-03-30T05:54:18.539Z,5.65
2019-03-30T05:56:47.602Z,5.79
2019-03-30T05:59:16.705Z,5.76
2019-03-30T06:01:45.854Z,5.84
2019-03-30T06:04:14.916Z,5.87
2019-03-30T06:06:44.149Z,5.94
2019-03-30T06:09:13.203Z,6.08
2019-03-30T06:11:42.352Z,6.39
2019-03-30T06:14:11.513Z,6.26
2019-03-30T06:16:40.781Z,6.60
2019-03-30T06:19:09.956Z,6.64
2019-03-30T06:24:19.339Z,6.89
2019-03-30T06:26:48.618Z,7.01
2019-03-30T06:29:17.715Z,7.14
2019-03-30T06:31:47.008Z,7.42
2019-03-30T06:34:16.119Z,7.79
2019-03-30T06:36:45.199Z,8.10
2019-03-30T06:39:14.554Z,8.46
2019-03-30T06:41:43.862Z,8.80
2019-03-30T06:44:13.156Z,8.92
2019-03-30T06:46:42.248Z,9.07
2019-03-30T06:49:11.460Z,9.38
2019-03-30T06:51:40.743Z,9.73
2019-03-30T06:54:09.954Z,10.01
2019-03-30T06:56:39.144Z,10.28
2019-03-30T06:59:08.452Z,10.53
2019-03-30T07:01:38.153Z,10.87
2019-03-30T07:04:11.046Z,11.16
2019-03-30T07:06:38.958Z,11.37
2019-03-30T07:09:08.087Z,11.59
2019-03-30T07:11:41.448Z,11.89
2019-03-30T07:14:10.840Z,12.61
2019-03-30T07:16:41.319Z,13.77
2019-03-30T07:19:11.634Z,14.18
2019-03-30T07:21:40.825Z,15.67
2019-03-30T07:24:09.914Z,16.91
2019-03-30T07:26:39.402Z,17.64
2019-03-30T07:29:08.700Z,16.77
2019-03-30T07:31:37.891Z,17.92
2019-03-30T07:34:07.109Z,19.43
2019-03-30T07:36:36.242Z,19.98
2019-03-30T07:39:05.545Z,20.61
2019-03-30T07:41:34.639Z,21.53
2019-03-30T07:44:03.818Z,21.88
2019-03-30T07:46:32.911Z,21.28
2019-03-30T07:49:02.231Z,20.66
2019-03-30T07:51:33.461Z,20.46
2019-03-30T07:54:02.757Z,20.23
2019-03-30T07:56:31.854Z,20.34
2019-03-30T07:59:01.168Z,19.57
2019-03-30T08:01:30.495Z,19.96
2019-03-30T08:03:59.795Z,18.71
2019-03-30T08:06:29.089Z,19.83
2019-03-30T08:08:58.199Z,19.83
2019-03-30T08:11:27.492Z,19.24
2019-03-30T08:13:56.619Z,19.68
2019-03-30T08:16:25.904Z,21.90
2019-03-30T08:18:54.969Z,21.90
2019-03-30T08:21:24.076Z,21.12
2019-03-30T08:23:53.303Z,21.01
2019-03-30T08:26:22.504Z,21.52
2019-03-30T08:28:51.792Z,21.72
2019-03-30T08:31:21.106Z,21.50
2019-03-30T08:33:50.272Z,22.81
2019-03-30T08:36:19.454Z,23.59
2019-03-30T08:38:48.642Z,23.78
2019-03-30T08:41:17.927Z,22.73
2019-03-30T08:43:47.003Z,21.65
2019-03-30T08:46:16.206Z,22.03
2019-03-30T08:48:45.390Z,22.41
2019-03-30T08:51:14.583Z,21.87
2019-03-30T08:53:53.972Z,22.27
2019-03-30T08:56:14.874Z,21.96
2019-03-30T08:58:44.126Z,22.24
2019-03-30T09:01:13.464Z,21.33
2019-03-30T09:03:42.640Z,21.83
2019-03-30T09:06:11.831Z,23.55
2019-03-30T09:08:40.946Z,23.35
2019-03-30T09:11:10.264Z,23.37
2019-03-30T09:13:39.459Z,23.06
2019-03-30T09:16:08.854Z,22.95
2019-03-30T09:18:38.105Z,23.15
2019-03-30T09:21:07.399Z,23.70
2019-03-30T09:23:36.737Z,25.52
2019-03-30T09:26:06.026Z,24.43
2019-03-30T09:28:35.181Z,22.91
2019-03-30T09:31:04.526Z,21.81
2019-03-30T09:33:33.809Z,22.74
2019-03-30T09:36:03.104Z,22.05
2019-03-30T09:38:32.328Z,22.93
2019-03-30T09:41:01.528Z,22.41
2019-03-30T09:43:30.703Z,21.80
2019-03-30T09:46:00.048Z,21.65
2019-03-30T09:48:29.257Z,23.37
2019-03-30T09:50:58.558Z,23.33
2019-03-30T09:53:27.862Z,23.37
2019-03-30T09:55:57.037Z,23.43
2019-03-30T09:58:26.239Z,24.95
2019-03-30T10:00:55.452Z,23.79
2019-03-30T10:03:24.561Z,25.49
2019-03-30T10:05:53.645Z,23.34
2019-03-30T10:08:22.967Z,23.41
2019-03-30T10:10:52.162Z,23.76
2019-03-30T10:13:21.486Z,23.90
2019-03-30T10:15:50.745Z,24.42
2019-03-30T10:18:19.883Z,24.58
2019-03-30T10:20:49.071Z,24.48
2019-03-30T10:23:18.451Z,24.24
2019-03-30T10:25:47.645Z,24.78
2019-03-30T10:28:16.859Z,24.99
2019-03-30T10:30:46.244Z,23.31
2019-03-30T10:33:15.323Z,24.15
2019-03-30T10:35:44.517Z,23.30
2019-03-30T10:38:13.728Z,23.97
2019-03-30T10:40:42.917Z,25.11
2019-03-30T10:43:12.237Z,23.96
2019-03-30T10:45:41.714Z,24.94
2019-03-30T10:48:11.111Z,25.22
2019-03-30T10:50:40.438Z,25.58
2019-03-30T10:53:09.640Z,26.84
2019-03-30T10:55:38.842Z,25.82
2019-03-30T10:58:08.089Z,25.19
2019-03-30T11:00:39.413Z,25.38
2019-03-30T11:03:08.672Z,26.22
2019-03-30T11:05:37.999Z,24.14
2019-03-30T11:08:07.272Z,25.77
2019-03-30T11:10:36.580Z,24.85
2019-03-30T11:13:05.813Z,25.05
2019-03-30T11:15:35.124Z,26.91
2019-03-30T11:18:04.414Z,25.87
2019-03-30T11:20:33.722Z,26.75
2019-03-30T11:23:03.068Z,25.07
2019-03-30T11:25:32.393Z,25.43
2019-03-30T11:28:01.764Z,24.14
2019-03-30T11:30:30.874Z,24.24
2019-03-30T11:33:00.078Z,24.09
2019-03-30T11:35:29.356Z,25.44
2019-03-30T11:37:58.545Z,24.77
2019-03-30T11:40:27.758Z,24.97
2019-03-30T11:42:57.249Z,25.99
2019-03-30T11:45:26.449Z,25.73
2019-03-30T11:47:55.780Z,25.77
2019-03-30T11:50:25.080Z,25.90
2019-03-30T11:52:54.274Z,25.67
2019-03-30T11:55:23.477Z,25.30
2019-03-30T11:57:52.580Z,24.39
2019-03-30T12:00:21.906Z,23.71
2019-03-30T12:02:51.212Z,25.12
2019-03-30T12:05:20.568Z,25.04
2019-03-30T12:07:49.777Z,25.91
2019-03-30T12:10:19.104Z,26.91
2019-03-30T12:12:48.413Z,25.95
2019-03-30T12:15:17.707Z,25.06
2019-03-30T12:17:47.023Z,24.53
2019-03-30T12:20:16.330Z,25.49
2019-03-30T12:22:45.537Z,24.57
2019-03-30T12:25:14.900Z,24.13
2019-03-30T12:27:44.252Z,27.04
2019-03-30T12:30:13.663Z,24.78
2019-03-30T12:32:42.988Z,26.43
2019-03-30T12:35:12.632Z,26.85
2019-03-30T12:37:41.938Z,27.19
2019-03-30T12:40:13.186Z,26.31
2019-03-30T12:42:42.523Z,24.54
2019-03-30T12:45:12.938Z,25.26
2019-03-30T12:47:42.288Z,24.98
2019-03-30T12:50:11.716Z,23.93
2019-03-30T12:52:40.950Z,23.87
2019-03-30T12:55:10.339Z,24.39
2019-03-30T12:57:39.897Z,24.77
2019-03-30T13:00:09.362Z,22.68
2019-03-30T13:02:38.581Z,21.57
2019-03-30T13:05:07.877Z,23.02
2019-03-30T13:07:37.032Z,22.84
2019-03-30T13:10:07.107Z,22.19
2019-03-30T13:12:36.331Z,22.85
2019-03-30T13:15:08.118Z,22.16
2019-03-30T13:17:37.663Z,22.16
2019-03-30T13:20:07.383Z,21.04
2019-03-30T13:22:36.736Z,21.04
2019-03-30T13:25:06.167Z,21.44
2019-03-30T13:27:35.613Z,22.47
2019-03-30T13:30:06.190Z,22.39
2019-03-30T13:32:35.550Z,21.37
2019-03-30T13:35:05.118Z,21.67
2019-03-30T13:37:34.330Z,22.50
2019-03-30T13:40:04.403Z,24.12
2019-03-30T13:42:33.815Z,25.57
2019-03-30T13:45:04.328Z,24.50
2019-03-30T13:47:33.555Z,24.17
2019-03-30T13:50:03.330Z,25.15
2019-03-30T13:52:32.485Z,24.33
2019-03-30T13:55:01.782Z,24.77
2019-03-30T13:57:31.106Z,23.88
2019-03-30T14:00:00.402Z,24.61
2019-03-30T14:02:29.540Z,22.70
2019-03-30T14:04:58.785Z,22.79
2019-03-30T14:07:27.894Z,23.99
2019-03-30T14:09:57.397Z,20.71
2019-03-30T14:12:26.601Z,20.42
2019-03-30T14:14:55.846Z,20.42
2019-03-30T14:17:25.084Z,22.56
2019-03-30T14:19:54.290Z,23.40
2019-03-30T14:22:23.608Z,24.76
2019-03-30T14:24:52.928Z,22.22
2019-03-30T14:27:22.538Z,22.47
2019-03-30T14:29:54.305Z,23.68
2019-03-30T14:32:22.923Z,24.06
2019-03-30T14:34:52.133Z,24.61
2019-03-30T14:37:21.370Z,25.09
2019-03-30T14:39:50.589Z,24.08
2019-03-30T14:42:19.708Z,23.31
2019-03-30T14:44:49.032Z,23.17
2019-03-30T14:47:18.264Z,23.68
2019-03-30T14:49:47.600Z,23.36
2019-03-30T14:52:16.720Z,24.52
2019-03-30T14:54:52.582Z,23.48
2019-03-30T14:57:16.947Z,22.13
2019-03-30T14:59:46.171Z,21.28
2019-03-30T15:02:15.420Z,21.16
2019-03-30T15:04:44.638Z,20.55
2019-03-30T15:07:13.935Z,20.82
2019-03-30T15:09:43.168Z,21.46
2019-03-30T15:12:12.485Z,22.18
2019-03-30T15:14:41.595Z,21.50
2019-03-30T15:17:10.911Z,21.49
2019-03-30T15:19:40.073Z,22.03
2019-03-30T15:22:09.301Z,21.81
2019-03-30T15:24:38.570Z,22.64
2019-03-30T15:27:07.768Z,22.72
2019-03-30T15:29:36.987Z,22.52
2019-03-30T15:32:06.212Z,22.10
2019-03-30T15:34:35.424Z,21.48
2019-03-30T15:37:04.630Z,21.43
2019-03-30T15:39:33.977Z,21.24
2019-03-30T15:42:03.316Z,21.11
2019-03-30T15:44:32.440Z,20.04
2019-03-30T15:47:01.661Z,20.58
2019-03-30T15:49:30.874Z,20.51
2019-03-30T15:52:13.380Z,20.04
2019-03-30T15:54:31.306Z,19.87
2019-03-30T15:57:13.477Z,19.44
2019-03-30T15:59:31.821Z,19.10
2019-03-30T16:02:01.160Z,19.01
2019-03-30T16:04:30.494Z,19.01
2019-03-30T16:06:59.829Z,19.18
2019-03-30T16:09:29.155Z,19.13
2019-03-30T16:11:58.444Z,19.17
2019-03-30T16:14:27.658Z,18.91
2019-03-30T16:16:56.881Z,18.73
2019-03-30T16:19:25.999Z,19.07
2019-03-30T16:21:55.221Z,18.95
2019-03-30T16:24:24.434Z,18.97
2019-03-30T16:26:53.830Z,18.67
2019-03-30T16:29:23.042Z,18.62
2019-03-30T16:31:52.166Z,18.66
2019-03-30T16:34:21.374Z,18.83
2019-03-30T16:36:50.574Z,18.75
2019-03-30T16:39:19.745Z,18.37
2019-03-30T16:41:49.024Z,18.16
2019-03-30T16:44:18.254Z,18.16
2019-03-30T16:46:47.476Z,17.98
2019-03-30T16:49:16.568Z,17.87
2019-03-30T16:51:45.780Z,17.84
2019-03-30T16:54:14.903Z,17.95
2019-03-30T16:56:43.996Z,17.80
2019-03-30T16:59:14.057Z,17.69
2019-03-30T17:01:43.417Z,17.67
2019-03-30T17:04:12.646Z,17.73
2019-03-30T17:06:41.852Z,17.71
2019-03-30T17:09:11.098Z,17.72
2019-03-30T17:11:40.411Z,17.95
2019-03-30T17:14:09.634Z,17.77
2019-03-30T17:16:38.863Z,17.74
2019-03-30T17:19:08.082Z,17.48
2019-03-30T17:21:37.383Z,17.27
2019-03-30T17:24:06.731Z,17.30
2019-03-30T17:26:36.214Z,17.23
2019-03-30T17:29:05.489Z,17.05
2019-03-30T17:31:34.896Z,16.96
2019-03-30T17:34:04.400Z,16.86
2019-03-30T17:36:33.607Z,16.95
2019-03-30T17:39:06.309Z,16.68
2019-03-30T17:41:35.437Z,16.55
2019-03-30T17:44:04.587Z,16.31
2019-03-30T17:46:33.671Z,16.33
2019-03-30T17:49:02.883Z,16.29
2019-03-30T17:51:32.251Z,16.16
2019-03-30T17:54:01.363Z,16.06
2019-03-30T17:56:30.475Z,16.01
2019-03-30T17:58:59.632Z,16.03
2019-03-30T18:01:28.727Z,15.88
2019-03-30T18:03:58.067Z,15.91
2019-03-30T18:06:27.258Z,15.84
2019-03-30T18:08:56.352Z,15.58
2019-03-30T18:11:25.570Z,15.50
2019-03-30T18:13:55.158Z,15.46
2019-03-30T18:16:24.363Z,15.28
2019-03-30T18:18:53.478Z,15.09
2019-03-30T18:21:22.739Z,14.99
2019-03-30T18:23:52.514Z,14.87
2019-03-30T18:26:21.893Z,14.78
2019-03-30T18:28:51.546Z,14.83
2019-03-30T18:31:20.882Z,14.69
2019-03-30T18:33:50.419Z,14.60
2019-03-30T18:36:19.651Z,14.30
2019-03-30T18:38:49.151Z,14.38
2019-03-30T18:41:18.430Z,14.11
2019-03-30T18:43:48.332Z,13.93
2019-03-30T18:46:17.757Z,14.09
2019-03-30T18:48:46.961Z,13.94
2019-03-30T18:51:16.582Z,13.88
2019-03-30T18:53:45.975Z,13.83
2019-03-30T18:56:15.284Z,13.59
2019-03-30T18:58:44.590Z,13.63
2019-03-30T19:01:13.688Z,13.49
2019-03-30T19:03:42.763Z,13.52
2019-03-30T19:06:12.030Z,13.39
2019-03-30T19:08:41.116Z,13.39
2019-03-30T19:11:10.360Z,13.33
2019-03-30T19:13:39.633Z,13.14
2019-03-30T19:16:08.929Z,12.94
2019-03-30T19:18:38.023Z,12.97
2019-03-30T19:21:07.372Z,13.00
2019-03-30T19:23:36.455Z,13.08
2019-03-30T19:26:05.776Z,12.87
2019-03-30T19:28:35.020Z,12.76
2019-03-30T19:31:04.372Z,12.83
2019-03-30T19:33:33.624Z,12.86
2019-03-30T19:36:02.960Z,12.76
2019-03-30T19:38:32.145Z,12.75
2019-03-30T19:41:01.361Z,12.73
2019-03-30T19:43:30.555Z,12.95
2019-03-30T19:45:59.806Z,12.75
2019-03-30T19:48:29.124Z,12.43
2019-03-30T19:50:58.347Z,12.46
2019-03-30T19:53:27.647Z,12.38
2019-03-30T19:55:56.849Z,12.27
2019-03-30T19:58:26.073Z,12.03
2019-03-30T20:00:55.381Z,11.96
2019-03-30T20:03:24.575Z,12.02
2019-03-30T20:05:53.928Z,11.98
2019-03-30T20:08:23.263Z,12.13
2019-03-30T20:10:52.568Z,12.06
2019-03-30T20:13:21.798Z,12.19
2019-03-30T20:15:51.028Z,12.21
2019-03-30T20:18:20.643Z,12.28
2019-03-30T20:20:49.776Z,12.17
2019-03-30T20:23:18.871Z,12.30
2019-03-30T20:25:48.181Z,12.37
2019-03-30T20:28:17.482Z,12.32
2019-03-30T20:30:46.839Z,12.36
2019-03-30T20:33:16.245Z,12.28
2019-03-30T20:35:45.471Z,12.27
2019-03-30T20:38:14.812Z,12.14
2019-03-30T20:40:44.099Z,12.05
2019-03-30T20:43:13.456Z,12.09
2019-03-30T20:45:42.641Z,12.28
2019-03-30T20:48:11.828Z,12.21
2019-03-30T20:50:40.916Z,12.24
2019-03-30T20:53:10.280Z,12.27
2019-03-30T20:55:39.375Z,12.24
2019-03-30T20:58:08.675Z,12.35
2019-03-30T21:00:37.894Z,12.40
2019-03-30T21:03:07.063Z,12.54
2019-03-30T21:05:36.466Z,12.35
2019-03-30T21:08:05.664Z,12.27
2019-03-30T21:10:35.279Z,12.20
2019-03-30T21:13:04.611Z,12.16
2019-03-30T21:15:33.831Z,12.12
2019-03-30T21:18:03.662Z,12.12
2019-03-30T21:20:33.145Z,12.11
2019-03-30T21:23:02.415Z,12.05
2019-03-30T21:25:31.595Z,12.06
2019-03-30T21:28:00.805Z,12.09
2019-03-30T21:30:30.084Z,12.17
2019-03-30T21:32:59.302Z,12.21
2019-03-30T21:35:28.493Z,12.22
2019-03-30T21:37:58.728Z,12.21
2019-03-30T21:40:28.266Z,12.21
2019-03-30T21:42:57.382Z,12.21
2019-03-30T21:45:26.548Z,12.25
2019-03-30T21:47:55.733Z,12.46
2019-03-30T21:50:25.131Z,12.39
2019-03-30T21:52:54.224Z,12.35
2019-03-30T21:55:23.297Z,12.37
2019-03-30T21:57:52.513Z,12.33
2019-03-30T22:00:47.038Z,12.27
2019-03-30T22:03:15.818Z,12.19
2019-03-30T22:05:45.363Z,12.10
2019-03-30T22:08:17.223Z,12.07
2019-03-30T22:10:45.732Z,12.06
2019-03-30T22:13:15.191Z,12.05
2019-03-30T22:15:44.371Z,12.05
2019-03-30T22:18:13.632Z,12.07
2019-03-30T22:20:42.870Z,12.03
2019-03-30T22:23:12.230Z,12.03
2019-03-30T22:25:41.824Z,12.03
2019-03-30T22:28:11.062Z,12.16
2019-03-30T22:30:40.455Z,12.27
2019-03-30T22:33:09.714Z,12.27
2019-03-30T22:35:38.814Z,12.25
2019-03-30T22:38:07.953Z,12.20
2019-03-30T22:40:37.154Z,12.15
2019-03-30T22:43:06.338Z,12.07
2019-03-30T22:45:35.588Z,12.04
2019-03-30T22:48:05.041Z,11.92
2019-03-30T22:50:34.681Z,11.82
2019-03-30T22:53:04.058Z,11.74
2019-03-30T22:55:33.257Z,11.72
2019-03-30T22:58:02.573Z,11.64
2019-03-30T23:00:55.039Z,11.75
2019-03-30T23:03:24.272Z,11.74
2019-03-30T23:05:53.551Z,11.68
2019-03-30T23:08:22.674Z,11.71
2019-03-30T23:10:52.013Z,11.64
2019-03-30T23:13:21.114Z,11.56
2019-03-30T23:15:50.463Z,11.40
2019-03-30T23:18:19.681Z,11.28
2019-03-30T23:20:48.866Z,11.33
2019-03-30T23:23:17.967Z,11.43
2019-03-30T23:25:47.232Z,11.27
2019-03-30T23:28:16.480Z,11.15
2019-03-30T23:30:54.131Z,11.05
2019-03-30T23:33:17.158Z,11.03
2019-03-30T23:35:46.397Z,11.10
2019-03-30T23:38:15.677Z,10.94
2019-03-30T23:40:45.022Z,10.83
2019-03-30T23:43:14.164Z,10.90
2019-03-30T23:45:43.339Z,10.83
2019-03-30T23:48:12.471Z,10.67
2019-03-30T23:50:41.783Z,10.65
2019-03-30T23:53:10.878Z,10.67
2019-03-30T23:55:40.276Z,10.60
2019-03-30T23:58:09.712Z,10.44
